Time;durP1;ratioP1;P1;durP2;ratioP2;P2;SDS_P1;SDS_P2;PMS_P1;PMS_P2;Temp;Humidity;BMP_temperature;BMP_pressure;BME280_temperature;BME280_humidity;BME280_pressure;Samples;Min_cycle;Max_cycle;Signal;HPM_P1;HPM_P2
2023/04/25 00:00:16;;;;;;;2.35;2.03;;;8.30;4.60;;;;;;7365202;19;20010;-70
2023/04/25 00:02:46;;;;;;;4.47;2.22;;;8.40;5.00;;;;;;7379088;19;20022;-70
2023/04/25 00:05:19;;;;;;;3.55;2.55;;;8.40;5.00;;;;;;7387107;19;20014;-69
2023/04/25 00:07:49;;;;;;;3.72;2.60;;;8.30;4.30;;;;;;7371780;19;20015;-69
2023/04/25 00:10:20;;;;;;;3.90;2.78;;;8.30;5.90;;;;;;7371736;19;20022;-70
2023/04/25 00:12:49;;;;;;;4.00;3.50;;;8.40;6.60;;;;;;7373282;19;20049;-69
2023/04/25 00:15:19;;;;;;;5.07;3.40;;;8.50;7.10;;;;;;7372756;19;20019;-69
2023/04/25 00:17:52;;;;;;;3.65;3.22;;;8.50;7.60;;;;;;7373135;19;20498;-69
2023/04/25 00:20:25;;;;;;;3.55;3.00;;;8.50;7.60;;;;;;7392642;19;20357;-68
2023/04/25 00:22:55;;;;;;;4.85;3.33;;;8.50;8.20;;;;;;7371098;19;20486;-69
2023/04/25 00:25:25;;;;;;;5.88;3.35;;;8.50;8.20;;;;;;7372400;19;20014;-69
2023/04/25 00:27:55;;;;;;;5.68;3.88;;;8.40;7.60;;;;;;7372151;19;20014;-69
2023/04/25 00:30:25;;;;;;;4.60;3.28;;;8.50;9.10;;;;;;7371608;19;20010;-69
2023/04/25 00:32:55;;;;;;;4.22;3.45;;;8.50;9.30;;;;;;7371799;19;20039;-69
2023/04/25 00:35:27;;;;;;;5.50;3.72;;;8.50;9.80;;;;;;7393160;19;20073;-69
2023/04/25 00:37:57;;;;;;;5.22;3.60;;;8.60;10.10;;;;;;7372630;19;20010;-69
2023/04/25 00:40:27;;;;;;;6.13;3.33;;;8.60;9.90;;;;;;7370545;19;20014;-68
2023/04/25 00:42:57;;;;;;;7.70;2.95;;;8.50;10.00;;;;;;7371626;19;20773;-69
2023/04/25 00:45:30;;;;;;;4.95;3.78;;;8.50;8.70;;;;;;7372153;19;20007;-70
2023/04/25 00:48:00;;;;;;;5.85;3.60;;;8.50;9.80;;;;;;7371595;19;20019;-68
2023/04/25 00:50:34;;;;;;;3.97;3.30;;;8.50;9.70;;;;;;7392217;19;20358;-68
2023/04/25 00:53:04;;;;;;;5.83;3.87;;;8.50;9.50;;;;;;7369831;19;20018;-69
2023/04/25 00:55:35;;;;;;;5.85;3.85;;;8.50;10.70;;;;;;7370675;19;20031;-68
2023/04/25 00:58:05;;;;;;;5.70;3.55;;;8.50;11.30;;;;;;7371790;19;20090;-69
2023/04/25 01:00:35;;;;;;;4.55;3.83;;;8.30;8.60;;;;;;7368776;19;20462;-69
2023/04/25 01:03:06;;;;;;;6.63;3.50;;;8.30;9.60;;;;;;7371174;19;20038;-70
2023/04/25 01:05:39;;;;;;;5.45;3.45;;;8.30;10.20;;;;;;7391536;19;20086;-70
2023/04/25 01:08:09;;;;;;;4.32;3.38;;;8.40;10.90;;;;;;7370862;19;20014;-70
2023/04/25 01:10:40;;;;;;;5.43;3.35;;;8.30;11.20;;;;;;7369146;19;20014;-69
2023/04/25 01:13:10;;;;;;;4.40;3.35;;;8.30;12.50;;;;;;7370619;19;20031;-69
2023/04/25 01:15:39;;;;;;;5.03;3.75;;;8.20;12.80;;;;;;7370018;19;20010;-70
2023/04/25 01:18:10;;;;;;;4.28;3.58;;;8.20;14.50;;;;;;7369426;19;20014;-70
2023/04/25 01:20:44;;;;;;;4.65;3.45;;;8.20;14.60;;;;;;7389877;19;20459;-69
2023/04/25 01:23:16;;;;;;;5.38;3.25;;;8.10;13.10;;;;;;7370533;19;20003;-69
2023/04/25 01:25:47;;;;;;;4.53;3.78;;;8.20;14.60;;;;;;7370767;19;20014;-69
2023/04/25 01:28:17;;;;;;;5.28;3.78;;;8.20;13.80;;;;;;7370543;19;20007;-68
2023/04/25 01:30:48;;;;;;;4.82;3.58;;;8.20;13.10;;;;;;7370591;19;20386;-68
2023/04/25 01:33:19;;;;;;;4.57;3.70;;;8.20;13.40;;;;;;7370858;19;20018;-70
2023/04/25 01:35:49;;;;;;;5.97;3.50;;;8.10;11.50;;;;;;7370729;19;20025;-69
2023/04/25 01:38:22;;;;;;;3.75;3.40;;;8.10;12.00;;;;;;7391871;19;20039;-70
2023/04/25 01:40:53;;;;;;;4.47;3.55;;;8.10;11.60;;;;;;7367831;19;20347;-70
2023/04/25 01:43:23;;;;;;;5.35;3.45;;;8.00;12.70;;;;;;7367857;19;20007;-69
2023/04/25 01:45:53;;;;;;;4.95;3.63;;;7.90;11.50;;;;;;7369884;19;20070;-68
2023/04/25 01:48:23;;;;;;;4.05;3.35;;;7.90;11.70;;;;;;7368943;19;20010;-70
2023/04/25 01:50:53;;;;;;;3.53;3.05;;;7.90;11.90;;;;;;7367695;19;20014;-69
2023/04/25 01:53:27;;;;;;;5.45;3.72;;;7.90;10.80;;;;;;7388940;19;20010;-69
2023/04/25 01:55:57;;;;;;;4.43;3.87;;;8.10;12.30;;;;;;7369280;19;20035;-69
2023/04/25 01:58:26;;;;;;;3.55;3.13;;;8.10;12.00;;;;;;7368386;19;20019;-69
2023/04/25 02:00:56;;;;;;;3.90;3.33;;;8.20;11.30;;;;;;7368899;19;20118;-69
2023/04/25 02:03:26;;;;;;;3.90;3.00;;;8.20;11.10;;;;;;7368386;19;20021;-69
2023/04/25 02:05:56;;;;;;;4.65;3.10;;;8.20;10.40;;;;;;7369935;19;20014;-70
2023/04/25 02:08:30;;;;;;;5.70;3.33;;;8.20;9.20;;;;;;7389525;19;20014;-69
2023/04/25 02:11:00;;;;;;;5.03;3.33;;;8.20;8.80;;;;;;7367453;19;20475;-70
2023/04/25 02:13:30;;;;;;;5.40;3.40;;;8.20;9.90;;;;;;7367106;19;20010;-69
2023/04/25 02:16:00;;;;;;;4.68;3.47;;;8.20;9.90;;;;;;7370273;19;20014;-69
2023/04/25 02:18:31;;;;;;;5.72;3.42;;;8.10;9.20;;;;;;7368126;19;20379;-69
2023/04/25 02:21:01;;;;;;;7.85;3.85;;;8.10;10.90;;;;;;7366842;19;20015;-70
2023/04/25 02:23:34;;;;;;;4.50;3.65;;;8.10;9.00;;;;;;7388246;19;20025;-68
2023/04/25 02:26:04;;;;;;;4.88;3.63;;;8.10;10.30;;;;;;7368787;19;20010;-68
2023/04/25 02:28:34;;;;;;;6.43;3.75;;;8.10;11.10;;;;;;7366926;19;20153;-70
2023/04/25 02:31:05;;;;;;;6.57;4.10;;;8.20;12.50;;;;;;7368336;19;20383;-69
2023/04/25 02:33:35;;;;;;;5.70;3.65;;;8.10;11.80;;;;;;7366450;19;20010;-69
2023/04/25 02:36:05;;;;;;;6.78;4.50;;;8.00;9.60;;;;;;7369085;19;20022;-68
2023/04/25 02:38:37;;;;;;;5.53;3.78;;;8.00;10.60;;;;;;7389716;19;20022;-68
2023/04/25 02:41:07;;;;;;;7.93;4.45;;;8.10;8.90;;;;;;7366515;19;20010;-68
2023/04/25 02:43:37;;;;;;;5.72;3.90;;;8.20;8.00;;;;;;7366344;19;20010;-69
2023/04/25 02:46:07;;;;;;;5.03;4.03;;;8.20;7.70;;;;;;7368037;19;20078;-68
2023/04/25 02:48:37;;;;;;;6.05;4.18;;;8.30;7.40;;;;;;7366604;19;20010;-69
2023/04/25 02:51:07;;;;;;;4.38;3.97;;;8.30;7.70;;;;;;7367055;19;20043;-69
2023/04/25 02:53:40;;;;;;;6.03;4.32;;;8.30;7.40;;;;;;7387757;19;20010;-69
2023/04/25 02:56:09;;;;;;;6.57;4.28;;;8.30;7.40;;;;;;7368873;19;20011;-70
2023/04/25 02:58:40;;;;;;;5.28;3.83;;;8.40;7.50;;;;;;7366546;19;20608;-70
2023/04/25 03:01:10;;;;;;;6.00;4.10;;;8.40;7.70;;;;;;7366838;19;20269;-69
2023/04/25 03:03:40;;;;;;;7.65;4.03;;;8.30;7.40;;;;;;7365145;19;20010;-69
2023/04/25 03:06:10;;;;;;;6.03;3.80;;;8.40;7.50;;;;;;7368784;19;20479;-68
2023/04/25 03:08:42;;;;;;;6.85;3.95;;;8.40;6.90;;;;;;7388881;19;20471;-68
2023/04/25 03:11:12;;;;;;;6.15;3.60;;;8.40;7.50;;;;;;7364912;19;20010;-69
2023/04/25 03:13:42;;;;;;;5.85;3.58;;;8.40;6.10;;;;;;7365416;19;20014;-69
2023/04/25 03:16:12;;;;;;;6.28;3.95;;;8.40;6.00;;;;;;7368790;19;20403;-68
2023/04/25 03:18:42;;;;;;;7.72;3.97;;;8.40;6.50;;;;;;7367759;19;20014;-68
2023/04/25 03:21:12;;;;;;;5.95;4.30;;;8.30;6.00;;;;;;7365012;19;20034;-68
2023/04/25 03:23:45;;;;;;;5.35;4.00;;;8.30;5.70;;;;;;7387451;19;20034;-69
2023/04/25 03:26:15;;;;;;;5.35;3.97;;;8.30;5.80;;;;;;7367658;19;20030;-69
2023/04/25 03:28:45;;;;;;;5.90;4.20;;;8.20;5.70;;;;;;7366877;19;20007;-69
2023/04/25 03:31:15;;;;;;;5.03;4.00;;;8.30;6.30;;;;;;7366888;19;20007;-69
2023/04/25 03:33:45;;;;;;;5.88;3.88;;;8.30;6.30;;;;;;7365464;19;20783;-69
2023/04/25 03:36:14;;;;;;;5.50;3.72;;;8.30;6.30;;;;;;7367636;19;20010;-68
2023/04/25 03:38:48;;;;;;;6.25;3.83;;;8.30;4.90;;;;;;7387430;19;20359;-68
2023/04/25 03:41:18;;;;;;;5.32;3.45;;;8.20;3.90;;;;;;7369324;19;20010;-70
2023/04/25 03:43:47;;;;;;;4.63;3.45;;;8.30;4.00;;;;;;7371109;19;20042;-67
2023/04/25 03:46:17;;;;;;;6.20;3.83;;;8.30;3.90;;;;;;7374492;19;20010;-68
2023/04/25 03:48:47;;;;;;;7.47;3.97;;;8.30;3.30;;;;;;7373574;19;20014;-68
2023/04/25 03:51:17;;;;;;;5.57;3.35;;;8.30;2.70;;;;;;7371144;19;20016;-68
2023/04/25 03:53:50;;;;;;;4.25;3.72;;;8.40;3.00;;;;;;7385558;19;20655;-69
2023/04/25 03:56:21;;;;;;;6.65;4.00;;;8.40;2.90;;;;;;7396194;19;20088;-69
2023/04/25 03:58:50;;;;;;;6.60;3.80;;;8.30;3.50;;;;;;7373338;19;20034;-69
2023/04/25 04:01:21;;;;;;;6.15;3.97;;;8.20;3.40;;;;;;7373161;19;20021;-69
2023/04/25 04:03:51;;;;;;;5.50;3.80;;;8.20;3.70;;;;;;7370901;19;20010;-69
2023/04/25 04:06:21;;;;;;;4.22;3.65;;;8.30;4.40;;;;;;7374442;19;20047;-69
2023/04/25 04:08:55;;;;;;;5.72;4.35;;;8.30;4.60;;;;;;7373390;19;20039;-68
2023/04/25 04:11:25;;;;;;;5.00;4.10;;;8.20;3.20;;;;;;7391671;19;20028;-68
2023/04/25 04:13:55;;;;;;;5.28;4.22;;;8.20;4.30;;;;;;7371298;19;20248;-68
2023/04/25 04:16:25;;;;;;;5.38;4.13;;;8.30;3.90;;;;;;7374029;19;20006;-68
2023/04/25 04:18:55;;;;;;;5.97;4.35;;;8.10;4.20;;;;;;7373017;19;20447;-68
2023/04/25 04:21:27;;;;;;;7.15;4.95;;;8.10;5.40;;;;;;7373147;19;20011;-68
2023/04/25 04:24:00;;;;;;;6.55;4.45;;;8.10;5.20;;;;;;7370289;19;20082;-68
2023/04/25 04:26:31;;;;;;;6.28;4.93;;;8.00;5.30;;;;;;7394009;19;20396;-68
2023/04/25 04:29:01;;;;;;;5.93;5.03;;;8.10;5.80;;;;;;7372132;19;20033;-68
2023/04/25 04:31:32;;;;;;;5.60;4.60;;;8.00;5.10;;;;;;7371030;19;20010;-69
2023/04/25 04:34:03;;;;;;;5.80;4.53;;;8.00;6.00;;;;;;7370644;19;20034;-69
2023/04/25 04:36:33;;;;;;;5.60;4.50;;;8.00;6.40;;;;;;7372310;19;20470;-67
2023/04/25 04:39:06;;;;;;;8.18;5.05;;;8.00;7.20;;;;;;7369489;19;20006;-69
2023/04/25 04:41:36;;;;;;;6.32;5.03;;;8.10;4.60;;;;;;7393948;19;20014;-68
2023/04/25 04:44:08;;;;;;;5.97;5.13;;;8.10;5.30;;;;;;7369595;19;20021;-69
2023/04/25 04:46:41;;;;;;;5.80;5.05;;;8.50;2.90;;;;;;7372354;19;20007;-68
2023/04/25 04:49:13;;;;;;;7.13;5.30;;;9.30;1.00;;;;;;7371118;19;20017;-68
2023/04/25 04:51:44;;;;;;;7.32;4.90;;;8.70;1.00;;;;;;7370970;19;20015;-69
2023/04/25 04:54:16;;;;;;;5.88;4.20;;;8.80;1.00;;;;;;7369582;19;20006;-69
2023/04/25 04:56:46;;;;;;;6.15;4.53;;;9.60;1.00;;;;;;7393473;19;20368;-68
2023/04/25 04:59:16;;;;;;;5.53;4.20;;;9.20;1.00;;;;;;7370702;19;20003;-68
2023/04/25 05:01:49;;;;;;;7.30;4.60;;;8.50;1.00;;;;;;7371581;19;20392;-68
2023/04/25 05:04:19;;;;;;;5.80;4.63;;;8.30;1.00;;;;;;7369101;19;20010;-68
2023/04/25 05:06:49;;;;;;;7.57;4.55;;;8.20;1.20;;;;;;7372784;19;20014;-68
2023/04/25 05:09:25;;;;;;;7.90;5.10;;;8.20;1.60;;;;;;7370601;19;20018;-69
2023/04/25 05:11:55;;;;;;;7.70;4.93;;;8.20;1.50;;;;;;7369472;19;20102;-69
2023/04/25 05:14:25;;;;;;;7.40;5.22;;;8.30;1.30;;;;;;7389828;19;20478;-68
2023/04/25 05:16:55;;;;;;;8.15;5.63;;;8.30;1.60;;;;;;7371161;19;20010;-68
2023/04/25 05:19:26;;;;;;;5.53;4.70;;;8.30;1.40;;;;;;7369496;19;20021;-68
2023/04/25 05:21:56;;;;;;;9.38;4.97;;;8.30;1.10;;;;;;7367912;19;20039;-68
2023/04/25 05:24:28;;;;;;;8.30;5.20;;;8.30;2.10;;;;;;7367493;19;20006;-69
2023/04/25 05:26:58;;;;;;;6.22;5.43;;;8.60;2.70;;;;;;7370723;19;21330;-69
2023/04/25 05:29:28;;;;;;;8.55;5.10;;;8.50;1.00;;;;;;7389151;19;20558;-69
2023/04/25 05:31:58;;;;;;;6.93;5.45;;;8.40;1.90;;;;;;7367759;19;20501;-68
2023/04/25 05:34:28;;;;;;;12.25;5.65;;;8.50;3.00;;;;;;7366978;19;20002;-69
2023/04/25 05:36:58;;;;;;;6.63;5.70;;;8.60;2.60;;;;;;7368646;19;20011;-67
2023/04/25 05:39:30;;;;;;;7.72;5.00;;;8.60;1.00;;;;;;7368171;19;20006;-69
2023/04/25 05:42:01;;;;;;;9.38;5.90;;;8.50;1.00;;;;;;7369284;19;20022;-69
2023/04/25 05:44:31;;;;;;;7.15;5.63;;;8.60;1.50;;;;;;7390120;19;20438;-68
2023/04/25 05:47:01;;;;;;;7.13;5.07;;;8.60;1.00;;;;;;7369382;19;20021;-68
2023/04/25 05:49:30;;;;;;;10.02;5.80;;;8.50;1.00;;;;;;7367832;19;20024;-68
2023/04/25 05:52:00;;;;;;;6.88;5.30;;;8.60;1.00;;;;;;7367515;19;20014;-68
2023/04/25 05:54:33;;;;;;;7.20;5.63;;;8.50;1.10;;;;;;7367966;19;20482;-68
2023/04/25 05:57:03;;;;;;;7.50;5.13;;;8.60;1.00;;;;;;7368938;19;20018;-70
2023/04/25 05:59:32;;;;;;;7.28;5.28;;;8.70;1.00;;;;;;7388898;19;20014;-68
2023/04/25 06:02:03;;;;;;;6.60;4.80;;;8.70;1.00;;;;;;7367550;19;20498;-69
2023/04/25 06:04:33;;;;;;;9.02;5.45;;;8.90;1.00;;;;;;7365579;19;20074;-69
2023/04/25 06:07:03;;;;;;;8.57;5.22;;;8.70;1.00;;;;;;7369533;19;20046;-69
2023/04/25 06:09:36;;;;;;;7.32;4.50;;;8.90;1.00;;;;;;7366950;19;20094;-68
2023/04/25 06:12:07;;;;;;;7.57;4.72;;;8.70;1.00;;;;;;7366831;19;20025;-69
2023/04/25 06:14:37;;;;;;;5.78;4.22;;;9.00;1.00;;;;;;7389540;19;20010;-70
2023/04/25 06:17:08;;;;;;;6.68;4.50;;;9.00;1.00;;;;;;7368415;19;20366;-69
2023/04/25 06:19:39;;;;;;;5.57;4.63;;;9.00;1.00;;;;;;7366967;19;20014;-68
2023/04/25 06:22:09;;;;;;;8.50;4.97;;;9.30;1.00;;;;;;7366356;19;20010;-69
2023/04/25 06:24:42;;;;;;;6.90;4.00;;;9.90;1.00;;;;;;7367892;19;20006;-69
2023/04/25 06:27:12;;;;;;;6.00;4.15;;;10.40;1.00;;;;;;7368318;19;20014;-68
2023/04/25 06:29:45;;;;;;;4.63;4.03;;;10.40;1.00;;;;;;7388475;19;20015;-70
2023/04/25 06:32:14;;;;;;;4.38;3.47;;;10.20;1.00;;;;;;7365062;19;20489;-69
2023/04/25 06:34:45;;;;;;;6.35;3.70;;;9.60;1.00;;;;;;7367545;19;20510;-70
2023/04/25 06:37:15;;;;;;;8.63;4.32;;;9.60;1.00;;;;;;7367768;19;20002;-69
2023/04/25 06:39:47;;;;;;;7.70;3.83;;;9.70;1.00;;;;;;7366867;19;20007;-69
2023/04/25 06:42:17;;;;;;;6.20;3.67;;;9.60;1.00;;;;;;7366234;19;20007;-69
2023/04/25 06:44:47;;;;;;;5.50;3.78;;;9.60;1.00;;;;;;7389616;19;20081;-69
2023/04/25 06:47:17;;;;;;;5.28;4.13;;;10.20;1.00;;;;;;7367902;19;20007;-68
2023/04/25 06:49:47;;;;;;;4.38;3.50;;;10.40;1.00;;;;;;7365280;19;20010;-68
2023/04/25 06:52:17;;;;;;;6.18;3.47;;;10.10;1.00;;;;;;7366478;19;20430;-68
2023/04/25 06:54:50;;;;;;;5.15;3.80;;;9.90;1.00;;;;;;7367657;19;20014;-69
2023/04/25 06:57:20;;;;;;;5.28;3.45;;;10.00;1.00;;;;;;7367910;19;20011;-68
2023/04/25 06:59:50;;;;;;;7.35;3.35;;;10.10;1.00;;;;;;7366413;19;20015;-68
2023/04/25 07:02:21;;;;;;;4.55;3.47;;;10.10;1.00;;;;;;7387883;19;20474;-68
2023/04/25 07:04:51;;;;;;;6.32;3.72;;;9.90;1.00;;;;;;7366154;19;20072;-68
2023/04/25 07:07:22;;;;;;;4.88;3.63;;;10.20;1.00;;;;;;7367546;19;20014;-68
2023/04/25 07:09:54;;;;;;;5.18;3.70;;;9.80;1.00;;;;;;7364828;19;20018;-68
2023/04/25 07:12:25;;;;;;;5.97;4.32;;;9.60;1.00;;;;;;7365170;19;20012;-69
2023/04/25 07:14:55;;;;;;;4.97;3.40;;;9.60;1.00;;;;;;7363981;19;20881;-69
2023/04/25 07:17:24;;;;;;;6.32;4.13;;;9.40;1.00;;;;;;7386322;19;20018;-68
2023/04/25 07:19:54;;;;;;;7.95;4.50;;;9.30;1.00;;;;;;7363469;19;20014;-70
2023/04/25 07:22:26;;;;;;;5.43;4.38;;;9.30;1.00;;;;;;7365657;19;20466;-68
2023/04/25 07:24:58;;;;;;;7.07;4.80;;;9.10;1.00;;;;;;7364643;19;20018;-69
2023/04/25 07:27:28;;;;;;;6.03;5.07;;;9.10;1.00;;;;;;7364966;19;20022;-69
2023/04/25 07:29:59;;;;;;;5.40;4.20;;;9.20;1.00;;;;;;7363226;19;20011;-69
2023/04/25 07:32:29;;;;;;;7.03;4.45;;;8.90;1.00;;;;;;7385625;19;20122;-67
2023/04/25 07:34:59;;;;;;;6.70;4.72;;;9.00;1.00;;;;;;7365394;19;20166;-68
2023/04/25 07:37:29;;;;;;;8.15;5.25;;;9.20;1.00;;;;;;7367077;19;20387;-69
2023/04/25 07:40:01;;;;;;;10.65;5.57;;;9.20;1.00;;;;;;7363912;19;20014;-69
2023/04/25 07:42:31;;;;;;;8.50;5.97;;;9.00;1.00;;;;;;7363973;19;20015;-69
2023/04/25 07:45:01;;;;;;;7.47;4.80;;;8.90;1.00;;;;;;7365125;19;20493;-68
2023/04/25 07:47:31;;;;;;;9.20;5.15;;;8.80;1.00;;;;;;7388543;19;20031;-68
2023/04/25 07:50:01;;;;;;;7.32;5.18;;;8.90;1.00;;;;;;7362868;19;20014;-70
2023/04/25 07:52:31;;;;;;;7.35;5.40;;;9.00;1.00;;;;;;7363659;19;20342;-68
2023/04/25 07:55:03;;;;;;;8.40;6.15;;;8.80;1.00;;;;;;7365075;19;20178;-68
2023/04/25 07:57:33;;;;;;;8.35;5.53;;;8.90;1.00;;;;;;7364918;19;20022;-70
2023/04/25 08:00:03;;;;;;;8.32;5.78;;;8.80;1.00;;;;;;7363367;19;20035;-70
2023/04/25 08:02:33;;;;;;;11.50;6.45;;;8.80;1.00;;;;;;7385698;19;20082;-69
2023/04/25 08:05:03;;;;;;;9.20;6.90;;;8.60;2.40;;;;;;7364448;19;20054;-69
2023/04/25 08:07:33;;;;;;;9.52;6.80;;;8.60;5.90;;;;;;7364792;19;20482;-68
2023/04/25 08:10:06;;;;;;;12.40;7.13;;;8.60;7.60;;;;;;7362709;19;20530;-68
2023/04/25 08:12:36;;;;;;;10.18;7.82;;;8.70;7.60;;;;;;7362765;19;20385;-68
2023/04/25 08:15:08;;;;;;;9.55;7.13;;;8.70;7.60;;;;;;7364853;19;20502;-69
2023/04/25 08:17:38;;;;;;;10.25;7.78;;;8.70;6.60;;;;;;7386954;19;20018;-69
2023/04/25 08:20:10;;;;;;;9.10;7.22;;;8.70;8.80;;;;;;7361761;19;20019;-69
2023/04/25 08:22:40;;;;;;;9.70;7.45;;;8.70;9.00;;;;;;7363122;19;20664;-69
2023/04/25 08:25:13;;;;;;;11.38;7.25;;;8.70;9.10;;;;;;7364113;19;20867;-69
2023/04/25 08:27:43;;;;;;;10.75;7.15;;;8.50;6.50;;;;;;7368892;19;20038;-68
2023/04/25 08:30:14;;;;;;;12.13;8.20;;;8.50;7.60;;;;;;7369369;19;20030;-69
2023/04/25 08:32:44;;;;;;;10.13;7.03;;;8.60;8.90;;;;;;7390604;19;20018;-69
2023/04/25 08:35:14;;;;;;;9.90;7.75;;;8.40;6.00;;;;;;7371541;19;20047;-68
2023/04/25 08:37:44;;;;;;;10.60;8.02;;;8.20;4.90;;;;;;7371633;19;20490;-69
2023/04/25 08:40:18;;;;;;;11.48;6.80;;;8.40;7.50;;;;;;7368415;19;20012;-68
2023/04/25 08:42:49;;;;;;;8.55;6.65;;;8.30;4.20;;;;;;7370010;19;20847;-67
2023/04/25 08:45:19;;;;;;;7.72;6.72;;;8.30;4.90;;;;;;7371456;19;20010;-68
2023/04/25 08:47:53;;;;;;;8.68;7.38;;;8.30;5.70;;;;;;7375675;19;20014;-68
2023/04/25 08:50:26;;;;;;;9.65;7.68;;;8.40;7.50;;;;;;7390778;19;20018;-68
2023/04/25 08:52:56;;;;;;;10.48;7.60;;;8.40;6.80;;;;;;7368601;19;20021;-68
2023/04/25 08:55:30;;;;;;;15.45;8.63;;;8.30;9.20;;;;;;7371290;19;20014;-69
2023/04/25 08:58:02;;;;;;;11.77;9.00;;;8.30;9.30;;;;;;7370652;19;20014;-69
2023/04/25 09:00:32;;;;;;;10.52;8.52;;;8.30;10.00;;;;;;7367656;19;20282;-69
2023/04/25 09:03:02;;;;;;;12.15;9.43;;;8.20;9.80;;;;;;7369004;19;20014;-69
2023/04/25 09:05:32;;;;;;;11.88;9.07;;;8.30;13.30;;;;;;7393091;19;20463;-68
2023/04/25 09:08:03;;;;;;;11.75;9.40;;;8.30;13.60;;;;;;7370780;19;20003;-69
2023/04/25 09:10:36;;;;;;;11.73;9.23;;;8.30;13.30;;;;;;7367845;19;20109;-69
2023/04/25 09:13:08;;;;;;;12.50;10.00;;;8.30;12.70;;;;;;7368560;19;20015;-69
2023/04/25 09:15:51;;;;;;;13.95;10.43;;;8.70;18.00;;;;;;7371115;19;20010;-69
2023/04/25 09:18:28;;;;;;;16.38;11.45;;;8.80;18.40;;;;;;7369208;19;20010;-69
2023/04/25 09:21:07;;;;;;;15.20;10.25;;;8.90;18.60;;;;;;7367188;19;20042;-69
2023/04/25 09:23:44;;;;;;;13.50;9.80;;;8.60;14.90;;;;;;7389477;19;20089;-69
2023/04/25 09:26:17;;;;;;;12.55;10.40;;;8.70;17.70;;;;;;7370923;19;20015;-67
2023/04/25 09:28:47;;;;;;;17.00;11.60;;;8.50;14.70;;;;;;7368931;19;20018;-68
2023/04/25 09:31:24;;;;;;;13.85;11.18;;;8.60;15.40;;;;;;7369839;19;20042;-68
2023/04/25 09:34:02;;;;;;;14.05;10.48;;;8.80;17.70;;;;;;7367795;19;20010;-68
2023/04/25 09:36:33;;;;;;;13.35;10.75;;;9.00;18.10;;;;;;7369304;19;20546;-67
2023/04/25 09:39:03;;;;;;;10.63;9.00;;;9.10;18.00;;;;;;7367364;19;20367;-68
2023/04/25 09:41:41;;;;;;;10.13;8.50;;;9.00;15.10;;;;;;7390754;19;20006;-68
2023/04/25 09:44:11;;;;;;;11.95;8.60;;;8.80;14.10;;;;;;7368343;19;20017;-68
2023/04/25 09:46:41;;;;;;;11.70;9.02;;;9.00;16.70;;;;;;7368337;19;20389;-68
2023/04/25 09:49:12;;;;;;;9.65;8.30;;;9.00;15.80;;;;;;7367744;19;20011;-69
2023/04/25 09:51:41;;;;;;;11.60;8.85;;;9.00;15.20;;;;;;7368700;19;20101;-69
2023/04/25 09:54:11;;;;;;;12.32;8.98;;;8.90;15.60;;;;;;7367465;19;20021;-68
2023/04/25 09:56:45;;;;;;;13.27;9.38;;;9.00;18.00;;;;;;7392058;19;20010;-67
2023/04/25 09:59:15;;;;;;;12.35;9.73;;;8.90;16.60;;;;;;7368127;19;20015;-68
2023/04/25 10:01:46;;;;;;;14.85;10.05;;;8.70;16.70;;;;;;7368628;19;20414;-69
2023/04/25 10:04:21;;;;;;;9.90;8.00;;;8.60;19.90;;;;;;7367484;19;20007;-69
2023/04/25 10:06:53;;;;;;;15.50;9.18;;;8.40;18.80;;;;;;7369269;19;20018;-69
2023/04/25 10:09:23;;;;;;;14.05;9.00;;;8.20;19.70;;;;;;7366276;19;20086;-68
2023/04/25 10:11:56;;;;;;;15.23;10.52;;;7.60;24.80;;;;;;7367727;19;20472;-69
2023/04/25 10:14:26;;;;;;;15.48;10.48;;;7.40;22.80;;;;;;7388139;19;20007;-70
2023/04/25 10:16:57;;;;;;;13.25;10.38;;;7.40;28.50;;;;;;7366499;19;20013;-69
2023/04/25 10:19:27;;;;;;;14.55;9.32;;;7.40;29.90;;;;;;7366281;19;20367;-70
2023/04/25 10:22:04;;;;;;;14.30;8.80;;;7.50;31.60;;;;;;7366517;19;20011;-69
2023/04/25 10:24:34;;;;;;;12.45;8.25;;;7.20;31.20;;;;;;7367231;19;20014;-68
2023/04/25 10:27:07;;;;;;;10.18;7.75;;;7.20;31.40;;;;;;7368836;19;20010;-69
2023/04/25 10:29:38;;;;;;;10.00;7.57;;;7.20;31.10;;;;;;7387632;19;20033;-67
2023/04/25 10:32:08;;;;;;;13.07;9.95;;;7.00;28.70;;;;;;7365810;19;20019;-69
2023/04/25 10:34:42;;;;;;;13.30;9.35;;;6.90;30.00;;;;;;7365210;19;20400;-69
2023/04/25 10:37:13;;;;;;;13.32;9.20;;;7.00;31.20;;;;;;7369037;19;20101;-69
2023/04/25 10:39:45;;;;;;;11.82;9.43;;;7.10;31.30;;;;;;7366915;19;20042;-67
2023/04/25 10:42:18;;;;;;;10.38;7.88;;;7.10;32.90;;;;;;7366674;19;20371;-68
2023/04/25 10:45:05;;;;;;;6.50;5.15;;;7.00;32.60;;;;;;7388965;19;20391;-68
2023/04/25 10:47:38;;;;;;;7.32;5.72;;;6.70;28.60;;;;;;7392332;19;20026;-67
2023/04/25 10:50:10;;;;;;;28.25;20.23;;;7.00;32.00;;;;;;7365684;19;20461;-68
2023/04/25 10:52:42;;;;;;;11.57;8.63;;;7.40;32.80;;;;;;7366041;19;20010;-69
2023/04/25 10:55:12;;;;;;;13.55;9.55;;;7.40;32.00;;;;;;7366887;19;20864;-68
2023/04/25 10:57:48;;;;;;;11.23;7.88;;;7.60;32.90;;;;;;7366788;19;20006;-69
2023/04/25 11:00:21;;;;;;;11.68;8.40;;;7.40;29.90;;;;;;7366356;19;20763;-68
2023/04/25 11:03:01;;;;;;;12.32;8.60;;;7.60;30.50;;;;;;7365059;19;20015;-69
2023/04/25 11:05:35;;;;;;;12.70;8.05;;;7.90;33.00;;;;;;7387711;19;20031;-69
2023/04/25 11:08:30;;;;;;;11.60;8.63;;;7.80;30.10;;;;;;7366754;19;20065;-70
2023/04/25 11:11:01;;;;;;;9.63;7.10;;;7.90;30.10;;;;;;7364099;19;20009;-69
2023/04/25 11:13:34;;;;;;;8.23;6.50;;;7.80;27.30;;;;;;7362815;19;20037;-68
2023/04/25 11:16:04;;;;;;;7.93;5.85;;;8.70;25.00;;;;;;7367010;19;20026;-68
2023/04/25 11:18:43;;;;;;;6.72;5.82;;;8.70;20.20;;;;;;7366524;19;20011;-68
2023/04/25 11:21:14;;;;;;;10.77;6.97;;;8.00;20.80;;;;;;7365340;19;20022;-68
2023/04/25 11:23:48;;;;;;;9.50;6.32;;;8.10;25.40;;;;;;7386686;19;20081;-68
2023/04/25 11:26:18;;;;;;;12.52;7.57;;;7.60;24.60;;;;;;7366455;19;20006;-67
2023/04/25 11:28:51;;;;;;;9.25;6.80;;;7.80;27.50;;;;;;7365676;19;20331;-68
2023/04/25 11:31:23;;;;;;;7.75;6.43;;;7.70;25.00;;;;;;7365681;19;20014;-67
2023/04/25 11:33:53;;;;;;;9.18;6.38;;;7.70;26.30;;;;;;7365199;19;20003;-67
2023/04/25 11:36:25;;;;;;;8.77;6.60;;;7.60;22.80;;;;;;7367286;19;20527;-67
2023/04/25 11:38:56;;;;;;;10.50;7.28;;;7.80;24.80;;;;;;7364896;19;20518;-68
2023/04/25 11:41:28;;;;;;;8.65;5.95;;;8.00;25.70;;;;;;7385198;19;20018;-66
2023/04/25 11:44:00;;;;;;;8.73;5.75;;;7.70;18.40;;;;;;7365192;19;20038;-68
2023/04/25 11:46:30;;;;;;;9.13;6.63;;;7.70;21.10;;;;;;7366201;19;20086;-66
2023/04/25 11:49:00;;;;;;;10.38;6.45;;;7.60;19.70;;;;;;7365548;19;20490;-66
2023/04/25 11:51:30;;;;;;;12.10;7.50;;;7.50;20.60;;;;;;7365733;19;20010;-66
2023/04/25 11:54:00;;;;;;;9.95;7.18;;;7.80;23.10;;;;;;7363964;19;20014;-68
2023/04/25 11:56:31;;;;;;;7.50;6.25;;;8.20;26.20;;;;;;7387734;19;20030;-67
2023/04/25 11:59:05;;;;;;;8.57;6.43;;;8.00;19.60;;;;;;7364433;19;20010;-66
2023/04/25 12:01:37;;;;;;;9.82;7.35;;;7.80;20.70;;;;;;7366062;19;20010;-67
2023/04/25 12:04:17;;;;;;;9.43;6.53;;;7.90;23.00;;;;;;7373177;19;20021;-68
2023/04/25 12:06:50;;;;;;;9.80;7.25;;;8.10;24.00;;;;;;7373278;19;20078;-71
2023/04/25 12:09:21;;;;;;;10.15;7.30;;;8.30;24.60;;;;;;7367738;19;20518;-69
2023/04/25 12:11:56;;;;;;;10.60;6.85;;;8.30;21.70;;;;;;7371393;19;20010;-68
2023/04/25 12:14:30;;;;;;;11.73;8.20;;;8.40;22.10;;;;;;7392169;19;20010;-69
2023/04/25 12:17:01;;;;;;;13.07;7.80;;;8.40;21.80;;;;;;7371965;19;20010;-69
2023/04/25 12:19:35;;;;;;;10.60;7.47;;;8.40;21.10;;;;;;7370314;19;20038;-68
2023/04/25 12:22:20;;;;;;;12.07;7.97;;;8.40;21.10;;;;;;7371921;19;20014;-69
2023/04/25 12:24:51;;;;;;;;;;;8.70;22.80;;;;;;7372586;19;20022;-68
2023/04/25 12:27:21;;;;;;;12.23;8.50;;;9.30;19.30;;;;;;7372457;19;19907;-69
2023/04/25 12:29:58;;;;;;;10.90;7.43;;;9.20;16.10;;;;;;7370350;19;20697;-69
2023/04/25 12:32:28;;;;;;;11.77;8.15;;;8.80;11.10;;;;;;7393633;19;20031;-69
2023/04/25 12:34:59;;;;;;;14.20;8.85;;;9.10;15.20;;;;;;7370389;19;20082;-69
2023/04/25 12:37:29;;;;;;;12.40;8.25;;;9.50;17.40;;;;;;7371863;19;20427;-69
2023/04/25 12:39:59;;;;;;;9.75;7.80;;;9.50;13.70;;;;;;7369317;19;20457;-69
2023/04/25 12:42:29;;;;;;;8.93;7.03;;;9.60;11.90;;;;;;7370776;19;20352;-68
2023/04/25 12:45:02;;;;;;;11.65;7.78;;;9.90;10.90;;;;;;7371768;19;20018;-68
2023/04/25 12:47:35;;;;;;;11.07;7.60;;;10.00;10.50;;;;;;7393366;19;20022;-68
2023/04/25 12:50:05;;;;;;;10.70;7.68;;;9.90;8.40;;;;;;7368233;19;20014;-67
2023/04/25 12:52:44;;;;;;;10.93;7.90;;;10.00;7.00;;;;;;7367323;19;20011;-68
2023/04/25 12:55:14;;;;;;;10.73;7.32;;;10.20;3.10;;;;;;7367043;19;20006;-69
2023/04/25 12:57:44;;;;;;;11.85;7.97;;;10.50;5.50;;;;;;7370488;19;20021;-69
2023/04/25 13:00:19;;;;;;;10.20;7.30;;;10.80;1.00;;;;;;7367059;19;20013;-69
2023/04/25 13:02:49;;;;;;;11.30;6.95;;;10.60;1.00;;;;;;7373941;19;20077;-68
2023/04/25 13:05:19;;;;;;;13.32;8.30;;;9.60;3.80;;;;;;7389951;19;20403;-69
2023/04/25 13:07:50;;;;;;;12.68;9.15;;;9.90;1.90;;;;;;7367469;19;20023;-68
2023/04/25 13:10:20;;;;;;;12.63;9.50;;;10.10;2.70;;;;;;7364806;19;20002;-68
2023/04/25 13:12:50;;;;;;;14.38;9.68;;;10.30;4.20;;;;;;7367037;19;20022;-67
2023/04/25 13:15:23;;;;;;;16.52;9.35;;;10.40;2.40;;;;;;7366036;19;20010;-68
2023/04/25 13:17:53;;;;;;;17.05;10.40;;;10.10;1.10;;;;;;7368126;19;20060;-68
2023/04/25 13:20:23;;;;;;;9.50;8.27;;;10.00;2.00;;;;;;7389604;19;20020;-69